Time;durP1;ratioP1;P1;durP2;ratioP2;P2;SDS_P1;SDS_P2;PMS_P1;PMS_P2;Temp;Humidity;BMP_temperature;BMP_pressure;BME280_temperature;BME280_humidity;BME280_pressure;Samples;Min_cycle;Max_cycle;Signal;HPM_P1;HPM_P2
2021/04/14 00:02:17;;;;;;;10.43;4.67;;;6.40;96.70;;;;;;5095450;28;20228;-67
2021/04/14 00:04:43;;;;;;;7.53;4.40;;;6.40;96.70;;;;;;5112646;28;20312;-67
2021/04/14 00:07:12;;;;;;;10.40;5.67;;;6.30;96.60;;;;;;5107185;28;20209;-66
2021/04/14 00:09:38;;;;;;;7.73;4.73;;;6.30;96.90;;;;;;5098759;28;20625;-68
2021/04/14 00:12:06;;;;;;;7.87;4.83;;;6.30;97.00;;;;;;5110664;28;20207;-66
2021/04/14 00:14:32;;;;;;;10.57;5.30;;;6.20;97.10;;;;;;5111616;28;20308;-67
2021/04/14 00:16:59;;;;;;;7.80;5.00;;;6.20;97.30;;;;;;5107164;28;20804;-68
2021/04/14 00:19:25;;;;;;;8.57;5.83;;;6.20;97.50;;;;;;5110118;28;20246;-67
2021/04/14 00:21:52;;;;;;;10.03;5.10;;;6.20;97.60;;;;;;5110678;28;20196;-68
2021/04/14 00:24:20;;;;;;;7.93;4.53;;;6.20;97.70;;;;;;5101696;28;20288;-66
2021/04/14 00:26:46;;;;;;;7.40;4.27;;;6.20;97.80;;;;;;5105207;28;20232;-68
2021/04/14 00:29:13;;;;;;;7.60;4.53;;;6.20;98.00;;;;;;5101155;28;20684;-68
2021/04/14 00:31:40;;;;;;;6.70;4.07;;;6.20;98.40;;;;;;5104831;28;20374;-67
2021/04/14 00:34:09;;;;;;;6.63;3.97;;;6.20;98.20;;;;;;5101405;28;20207;-68
2021/04/14 00:36:36;;;;;;;5.27;3.60;;;6.20;98.20;;;;;;5098415;28;20208;-68
2021/04/14 00:39:04;;;;;;;10.20;4.17;;;6.20;98.40;;;;;;5101053;28;20207;-68
2021/04/14 00:41:31;;;;;;;5.93;3.83;;;6.20;98.50;;;;;;5101147;28;20242;-67
2021/04/14 00:43:58;;;;;;;6.53;4.20;;;6.30;98.60;;;;;;5108976;28;20231;-67
2021/04/14 00:46:25;;;;;;;5.77;4.00;;;6.20;98.70;;;;;;5102795;28;20200;-66
2021/04/14 00:48:51;;;;;;;6.33;4.23;;;6.20;98.70;;;;;;5103961;27;20614;-69
2021/04/14 00:51:19;;;;;;;6.60;3.47;;;6.20;99.00;;;;;;5104718;28;20350;-67
2021/04/14 00:53:45;;;;;;;7.10;4.00;;;6.20;99.00;;;;;;5103872;28;20308;-67
2021/04/14 00:56:12;;;;;;;8.17;4.40;;;6.30;99.10;;;;;;5092118;28;20201;-67
2021/04/14 00:58:39;;;;;;;11.77;4.37;;;6.30;99.20;;;;;;5104567;28;20291;-68
2021/04/14 01:01:05;;;;;;;7.00;3.83;;;6.30;99.30;;;;;;5101570;28;20197;-67
2021/04/14 01:03:35;;;;;;;6.03;3.97;;;6.40;99.40;;;;;;5099546;28;20204;-67
2021/04/14 01:06:05;;;;;;;5.30;4.20;;;6.30;99.40;;;;;;5109270;28;20217;-67
2021/04/14 01:08:31;;;;;;;7.40;4.20;;;6.30;99.40;;;;;;5105922;28;20205;-67
2021/04/14 01:10:58;;;;;;;7.93;3.60;;;6.20;99.40;;;;;;5095263;28;20204;-67
2021/04/14 01:13:24;;;;;;;6.80;3.43;;;6.20;99.80;;;;;;5105824;28;20307;-67
2021/04/14 01:15:52;;;;;;;8.60;4.00;;;6.20;99.90;;;;;;5099254;28;20203;-67
2021/04/14 01:18:20;;;;;;;6.17;4.20;;;6.20;99.90;;;;;;5108307;28;20248;-67
2021/04/14 01:20:48;;;;;;;7.53;4.43;;;6.10;99.90;;;;;;5107874;28;20205;-68
2021/04/14 01:23:16;;;;;;;10.07;4.97;;;6.10;99.90;;;;;;5109305;28;20298;-67
2021/04/14 01:25:43;;;;;;;6.53;4.37;;;6.10;99.90;;;;;;5102383;28;20326;-67
2021/04/14 01:28:12;;;;;;;9.63;4.57;;;6.00;99.90;;;;;;5099052;28;20223;-67
2021/04/14 01:30:40;;;;;;;7.00;4.50;;;6.00;99.90;;;;;;5100334;28;20264;-68
2021/04/14 01:33:07;;;;;;;7.13;4.33;;;6.00;99.90;;;;;;5104188;28;20204;-66
2021/04/14 01:35:33;;;;;;;7.23;4.07;;;6.00;99.90;;;;;;5101977;28;20683;-67
2021/04/14 01:38:00;;;;;;;7.50;4.47;;;5.90;99.90;;;;;;5099039;28;20223;-68
2021/04/14 01:40:28;;;;;;;10.40;4.90;;;5.90;99.90;;;;;;5093653;28;20258;-67
2021/04/14 01:42:55;;;;;;;7.13;4.83;;;5.90;99.90;;;;;;5109173;28;20333;-68
2021/04/14 01:45:26;;;;;;;8.37;5.07;;;5.90;99.90;;;;;;5111586;28;20287;-67
2021/04/14 01:47:53;;;;;;;10.07;4.80;;;5.80;99.90;;;;;;5107243;28;20287;-67
2021/04/14 01:50:20;;;;;;;9.47;4.73;;;5.80;99.90;;;;;;5113104;28;20223;-67
2021/04/14 01:52:46;;;;;;;8.20;4.60;;;5.80;99.90;;;;;;5111977;28;20243;-67
2021/04/14 01:55:14;;;;;;;9.37;5.20;;;5.80;99.90;;;;;;5105557;28;20230;-67
2021/04/14 01:57:44;;;;;;;8.67;5.03;;;5.80;99.90;;;;;;5110006;28;20304;-67
2021/04/14 02:00:15;;;;;;;7.40;4.50;;;5.70;99.90;;;;;;5111784;28;20218;-68
2021/04/14 02:02:42;;;;;;;11.30;4.57;;;5.70;99.90;;;;;;5101889;28;20220;-66
2021/04/14 02:05:11;;;;;;;7.43;4.30;;;5.70;99.90;;;;;;5118746;28;20208;-69
2021/04/14 02:07:37;;;;;;;17.93;6.97;;;5.70;99.90;;;;;;5112454;28;20203;-67
2021/04/14 02:10:06;;;;;;;7.17;4.23;;;5.80;99.90;;;;;;5106846;28;20224;-67
2021/04/14 02:12:32;;;;;;;5.73;4.50;;;5.70;99.90;;;;;;5098545;28;20977;-67
2021/04/14 02:15:00;;;;;;;6.40;4.30;;;5.60;99.90;;;;;;5107132;28;20220;-67
2021/04/14 02:17:27;;;;;;;6.60;4.20;;;5.60;99.90;;;;;;5112227;28;20228;-67
2021/04/14 02:19:53;;;;;;;9.40;4.07;;;5.60;99.90;;;;;;5111753;28;20246;-66
2021/04/14 02:22:19;;;;;;;7.13;4.10;;;5.60;99.90;;;;;;5108333;28;20341;-67
2021/04/14 02:24:46;;;;;;;8.47;4.17;;;5.60;99.90;;;;;;5093234;28;20232;-67
2021/04/14 02:27:12;;;;;;;6.87;3.87;;;5.60;99.90;;;;;;5101335;28;20257;-66
2021/04/14 02:29:38;;;;;;;8.50;4.20;;;5.50;99.90;;;;;;5100088;28;20228;-67
2021/04/14 02:32:07;;;;;;;8.30;4.50;;;5.60;99.90;;;;;;5111312;28;20234;-68
2021/04/14 02:34:33;;;;;;;6.20;3.90;;;5.60;99.90;;;;;;5104752;28;20209;-67
2021/04/14 02:36:59;;;;;;;5.97;4.20;;;5.60;99.90;;;;;;5107169;28;20204;-66
2021/04/14 02:39:26;;;;;;;8.37;5.13;;;5.60;99.90;;;;;;5101292;28;20287;-67
2021/04/14 02:41:52;;;;;;;6.60;5.17;;;5.50;99.90;;;;;;5097136;28;20204;-67
2021/04/14 02:44:18;;;;;;;12.33;6.90;;;5.50;99.90;;;;;;5098653;28;20224;-66
2021/04/14 02:46:45;;;;;;;10.73;7.13;;;5.40;99.90;;;;;;5105410;28;20203;-67
2021/04/14 02:49:12;;;;;;;11.30;7.50;;;5.40;99.90;;;;;;5102758;28;20216;-68
2021/04/14 02:51:39;;;;;;;9.40;7.00;;;5.40;99.90;;;;;;5101286;28;20592;-66
2021/04/14 02:54:05;;;;;;;11.13;7.07;;;5.30;99.90;;;;;;5100540;28;20444;-66
2021/04/14 02:56:32;;;;;;;13.53;7.27;;;5.30;99.90;;;;;;5100163;28;20210;-66
2021/04/14 02:58:58;;;;;;;7.73;4.97;;;5.30;99.90;;;;;;5098843;28;20627;-68
2021/04/14 03:01:27;;;;;;;7.13;3.50;;;5.30;99.90;;;;;;5102175;28;20207;-67
2021/04/14 03:03:53;;;;;;;10.43;4.40;;;5.30;99.90;;;;;;5096014;28;20215;-67
2021/04/14 03:06:20;;;;;;;9.87;3.30;;;5.30;99.90;;;;;;5099604;28;20208;-67
2021/04/14 03:08:47;;;;;;;5.83;3.17;;;5.20;99.90;;;;;;5094982;28;20212;-66
2021/04/14 03:11:14;;;;;;;10.73;3.70;;;5.20;99.90;;;;;;5104130;28;20245;-66
2021/04/14 03:13:40;;;;;;;6.77;3.47;;;5.20;99.90;;;;;;5099618;28;20223;-67
2021/04/14 03:16:07;;;;;;;4.17;3.10;;;5.20;99.90;;;;;;5103866;28;20200;-66
2021/04/14 03:18:33;;;;;;;7.57;3.80;;;5.20;99.90;;;;;;5101845;28;20290;-66
2021/04/14 03:21:00;;;;;;;9.67;3.17;;;5.30;99.90;;;;;;5099153;28;20234;-66
2021/04/14 03:23:27;;;;;;;5.50;2.80;;;5.30;99.90;;;;;;5108209;28;20671;-67
2021/04/14 03:25:55;;;;;;;6.60;3.27;;;5.30;99.90;;;;;;5094741;28;20267;-67
2021/04/14 03:28:21;;;;;;;7.03;2.90;;;5.30;99.90;;;;;;5101579;28;20212;-67
2021/04/14 03:30:48;;;;;;;7.13;3.20;;;5.30;99.90;;;;;;5105762;28;20285;-67
2021/04/14 03:33:14;;;;;;;5.87;3.07;;;5.30;99.90;;;;;;5111852;28;20563;-67
2021/04/14 03:35:41;;;;;;;5.70;2.90;;;5.30;99.90;;;;;;5100679;28;20612;-68
2021/04/14 03:38:07;;;;;;;7.67;2.80;;;5.30;99.90;;;;;;5101141;28;20645;-66
2021/04/14 03:40:35;;;;;;;6.13;2.97;;;5.40;99.90;;;;;;5103458;28;20672;-66
2021/04/14 03:43:01;;;;;;;6.07;2.90;;;5.40;99.90;;;;;;5096230;28;20204;-67
2021/04/14 03:45:31;;;;;;;5.97;3.60;;;5.40;99.90;;;;;;5100549;28;20209;-67
2021/04/14 03:47:58;;;;;;;9.43;3.00;;;5.30;99.90;;;;;;5110534;28;20200;-68
2021/04/14 03:50:26;;;;;;;7.73;2.83;;;5.30;99.90;;;;;;5109668;28;20227;-66
2021/04/14 03:52:53;;;;;;;4.47;2.90;;;5.30;99.90;;;;;;5106868;28;20208;-65
2021/04/14 03:55:22;;;;;;;10.33;3.47;;;5.30;99.90;;;;;;5095371;28;20205;-66
2021/04/14 03:57:50;;;;;;;7.47;2.50;;;5.40;99.90;;;;;;5102981;28;20210;-67
2021/04/14 04:00:17;;;;;;;6.03;3.30;;;5.40;99.90;;;;;;5105003;28;20216;-67
2021/04/14 04:02:44;;;;;;;6.63;2.97;;;5.40;99.90;;;;;;5106125;28;20563;-67
2021/04/14 04:05:11;;;;;;;6.47;3.10;;;5.50;99.90;;;;;;5097644;28;20332;-66
2021/04/14 04:07:38;;;;;;;6.37;3.00;;;5.50;99.90;;;;;;5113573;28;20291;-67
2021/04/14 04:10:07;;;;;;;7.20;3.50;;;5.50;99.90;;;;;;5103673;28;20221;-67
2021/04/14 04:12:34;;;;;;;8.63;3.77;;;5.50;99.90;;;;;;5108666;28;20227;-66
2021/04/14 04:15:01;;;;;;;9.73;3.77;;;5.50;99.90;;;;;;5103639;28;20219;-68
2021/04/14 04:17:27;;;;;;;5.77;3.40;;;5.50;99.90;;;;;;5114245;28;20671;-66
2021/04/14 04:19:54;;;;;;;9.47;4.00;;;5.50;99.90;;;;;;5107095;28;20208;-66
2021/04/14 04:22:20;;;;;;;9.37;4.27;;;5.50;99.90;;;;;;5110777;28;20292;-66
2021/04/14 04:24:48;;;;;;;10.53;3.20;;;5.50;99.90;;;;;;5103258;28;20319;-66
2021/04/14 04:27:14;;;;;;;6.97;3.00;;;5.40;99.90;;;;;;5101188;28;20653;-67
2021/04/14 04:29:41;;;;;;;7.63;2.73;;;5.40;99.90;;;;;;5105177;28;20819;-65
2021/04/14 04:32:08;;;;;;;12.00;3.13;;;5.30;99.90;;;;;;5112747;28;20204;-66
2021/04/14 04:34:35;;;;;;;7.17;2.57;;;5.30;99.90;;;;;;5106738;28;20207;-66
2021/04/14 04:37:02;;;;;;;8.83;3.00;;;5.20;99.90;;;;;;5099064;28;20212;-66
2021/04/14 04:39:28;;;;;;;6.07;3.10;;;5.20;99.90;;;;;;5104262;28;20210;-67
2021/04/14 04:41:55;;;;;;;10.07;3.50;;;5.30;99.90;;;;;;5109155;28;20564;-66
2021/04/14 04:44:21;;;;;;;7.47;3.47;;;5.30;99.90;;;;;;5107619;28;20257;-65
2021/04/14 04:46:48;;;;;;;6.97;3.13;;;5.30;99.90;;;;;;5102571;28;20294;-67
2021/04/14 04:49:15;;;;;;;10.57;3.13;;;5.30;99.90;;;;;;5104582;28;20233;-66
2021/04/14 04:51:41;;;;;;;6.67;2.93;;;5.30;99.90;;;;;;5106561;28;20208;-66
2021/04/14 04:54:08;;;;;;;7.97;2.70;;;5.20;99.90;;;;;;5098125;28;20222;-65
2021/04/14 04:56:34;;;;;;;7.90;3.07;;;5.20;99.90;;;;;;5100498;28;20218;-66
2021/04/14 04:59:01;;;;;;;8.07;3.00;;;5.20;99.90;;;;;;5098769;28;20208;-67
2021/04/14 05:01:28;;;;;;;9.07;2.60;;;5.10;99.90;;;;;;5100048;28;20292;-66
2021/04/14 05:03:54;;;;;;;7.33;2.90;;;5.00;99.90;;;;;;5100468;28;20307;-66
2021/04/14 05:06:22;;;;;;;10.77;3.73;;;5.00;99.90;;;;;;5104175;28;20810;-67
2021/04/14 05:08:48;;;;;;;8.57;3.30;;;4.90;99.90;;;;;;5094365;28;20655;-67
2021/04/14 05:11:15;;;;;;;8.73;3.47;;;4.90;99.90;;;;;;5109462;28;20244;-67
2021/04/14 05:13:41;;;;;;;6.70;2.63;;;4.90;99.90;;;;;;5096480;28;20232;-66
2021/04/14 05:16:08;;;;;;;5.33;2.57;;;4.90;99.90;;;;;;5103881;28;20200;-66
2021/04/14 05:18:35;;;;;;;7.40;3.03;;;4.90;99.90;;;;;;5106455;28;20346;-65
2021/04/14 05:21:02;;;;;;;8.93;2.80;;;4.90;99.90;;;;;;5101612;28;20224;-66
2021/04/14 05:23:29;;;;;;;6.53;2.07;;;4.80;99.90;;;;;;5102872;28;20675;-67
2021/04/14 05:25:56;;;;;;;2.53;1.73;;;4.80;99.90;;;;;;5094375;28;20775;-66
2021/04/14 05:28:24;;;;;;;4.23;1.77;;;4.80;99.90;;;;;;5094869;28;20246;-65
2021/04/14 05:30:51;;;;;;;5.47;1.90;;;4.70;99.90;;;;;;5097855;28;20234;-66
2021/04/14 05:33:18;;;;;;;2.53;1.70;;;4.60;99.90;;;;;;5104368;28;20196;-65
2021/04/14 05:35:45;;;;;;;4.10;1.90;;;4.60;99.90;;;;;;5101326;28;20291;-66
2021/04/14 05:38:12;;;;;;;2.33;1.37;;;4.60;99.90;;;;;;5105739;28;20620;-66
2021/04/14 05:40:40;;;;;;;4.80;1.83;;;4.50;99.90;;;;;;5100209;28;20212;-67
2021/04/14 05:43:16;;;;;;;4.30;1.83;;;4.40;99.90;;;;;;5100305;28;20213;-66
2021/04/14 05:45:45;;;;;;;4.30;1.87;;;4.40;99.90;;;;;;5097696;28;20257;-66
2021/04/14 05:48:12;;;;;;;4.10;1.67;;;4.40;99.90;;;;;;5101692;28;20209;-66
2021/04/14 05:50:38;;;;;;;4.67;2.40;;;4.50;99.90;;;;;;5106416;28;20559;-66
2021/04/14 05:53:05;;;;;;;6.73;2.13;;;4.50;99.90;;;;;;5104264;28;20340;-66
2021/04/14 05:55:32;;;;;;;4.77;1.97;;;4.60;99.90;;;;;;5098071;28;20315;-66
2021/04/14 05:57:59;;;;;;;5.47;2.20;;;4.60;99.90;;;;;;5096359;28;20667;-68
2021/04/14 06:00:26;;;;;;;6.10;2.00;;;4.70;99.90;;;;;;5106516;28;20295;-65
2021/04/14 06:02:52;;;;;;;5.40;2.20;;;4.70;99.90;;;;;;5099469;28;20243;-67
2021/04/14 06:05:21;;;;;;;4.00;1.50;;;4.60;99.90;;;;;;5097297;28;20207;-66
2021/04/14 06:07:48;;;;;;;4.47;1.63;;;4.70;99.90;;;;;;5109447;28;20200;-67
2021/04/14 06:10:15;;;;;;;6.13;1.87;;;4.70;99.90;;;;;;5096257;28;20300;-66
2021/04/14 06:12:42;;;;;;;2.67;1.67;;;4.80;99.90;;;;;;5107605;28;20256;-69
2021/04/14 06:15:13;;;;;;;4.83;1.33;;;4.80;99.90;;;;;;5093875;28;20229;-67
2021/04/14 06:17:40;;;;;;;6.43;1.47;;;4.80;99.90;;;;;;5100739;28;20209;-68
2021/04/14 06:20:09;;;;;;;6.37;1.30;;;4.80;99.90;;;;;;5094638;28;20204;-66
2021/04/14 06:22:36;;;;;;;5.67;1.67;;;4.70;99.90;;;;;;5093353;28;20693;-66
2021/04/14 06:25:04;;;;;;;4.73;1.47;;;4.70;99.90;;;;;;5092781;28;20715;-67
2021/04/14 06:27:35;;;;;;;5.97;1.40;;;4.70;99.90;;;;;;5084702;28;20201;-67
2021/04/14 06:30:04;;;;;;;5.80;1.80;;;4.70;99.90;;;;;;5094611;28;20232;-68
2021/04/14 06:32:31;;;;;;;2.93;1.27;;;4.60;99.90;;;;;;5093410;28;20213;-68
2021/04/14 06:34:57;;;;;;;3.27;1.20;;;4.60;99.90;;;;;;5092764;28;20208;-66
2021/04/14 06:37:24;;;;;;;3.87;1.00;;;4.60;99.90;;;;;;5094344;28;20211;-67
2021/04/14 06:40:06;;;;;;;2.40;1.50;;;4.50;99.90;;;;;;5081651;28;20199;-67
2021/04/14 06:42:45;;;;;;;4.47;1.77;;;4.50;99.90;;;;;;5094104;28;20271;-66
2021/04/14 06:45:19;;;;;;;3.63;1.00;;;4.40;99.90;;;;;;5081801;28;20326;-67
2021/04/14 06:47:58;;;;;;;1.50;1.10;;;4.30;99.90;;;;;;5093847;28;20215;-68
2021/04/14 06:50:30;;;;;;;4.93;1.87;;;4.30;99.90;;;;;;5094497;28;20248;-68
2021/04/14 06:53:08;;;;;;;3.63;1.50;;;4.30;99.90;;;;;;5093981;28;20255;-69
2021/04/14 06:55:40;;;;;;;6.00;1.77;;;4.30;99.90;;;;;;5094590;28;20257;-68
2021/04/14 06:58:10;;;;;;;4.53;1.70;;;4.40;99.90;;;;;;5091418;28;20226;-70
2021/04/14 07:00:40;;;;;;;2.73;1.23;;;4.40;99.90;;;;;;5094280;28;20209;-71
2021/04/14 07:03:11;;;;;;;7.10;2.00;;;4.50;99.90;;;;;;5093262;28;20209;-70
2021/04/14 07:05:41;;;;;;;8.60;2.40;;;4.60;99.90;;;;;;5093220;28;20294;-69
2021/04/14 07:08:13;;;;;;;7.47;2.40;;;4.60;99.90;;;;;;5093569;28;20706;-70
2021/04/14 07:10:40;;;;;;;7.90;2.67;;;4.70;99.90;;;;;;5093221;28;20281;-70
2021/04/14 07:13:10;;;;;;;7.97;2.80;;;4.70;99.90;;;;;;5094347;28;20205;-69
2021/04/14 07:15:37;;;;;;;7.57;2.87;;;4.70;99.90;;;;;;5093172;28;20200;-69
2021/04/14 07:18:20;;;;;;;8.13;3.40;;;4.70;99.90;;;;;;5086927;28;20201;-70
2021/04/14 07:20:52;;;;;;;4.43;2.40;;;4.70;99.90;;;;;;5087583;28;20257;-70
2021/04/14 07:23:30;;;;;;;5.53;3.20;;;4.70;99.90;;;;;;5097084;28;20239;-70
2021/04/14 07:26:01;;;;;;;8.80;2.63;;;4.70;99.90;;;;;;5084879;28;20588;-71
2021/04/14 07:29:04;;;;;;;5.20;2.43;;;4.80;99.90;;;;;;5093286;28;20200;-71
2021/04/14 07:31:36;;;;;;;6.93;3.03;;;4.80;99.90;;;;;;5085184;28;20237;-70
2021/04/14 07:34:22;;;;;;;4.40;2.60;;;4.80;99.90;;;;;;5091779;28;20675;-70
2021/04/14 07:36:58;;;;;;;5.37;3.00;;;4.90;99.90;;;;;;5085082;28;20200;-70
2021/04/14 07:39:30;;;;;;;4.33;2.30;;;4.90;99.90;;;;;;5095360;28;20195;-70
2021/04/14 07:42:07;;;;;;;9.90;2.27;;;5.00;99.90;;;;;;5096353;28;20205;-66
2021/04/14 07:44:41;;;;;;;6.10;2.70;;;5.00;99.90;;;;;;5095979;28;20205;-67
2021/04/14 07:47:09;;;;;;;4.70;2.07;;;5.00;99.90;;;;;;5105038;28;20203;-68
2021/04/14 07:49:36;;;;;;;4.77;2.17;;;5.00;99.90;;;;;;5102065;28;20247;-68
2021/04/14 07:52:03;;;;;;;3.27;2.57;;;4.90;99.90;;;;;;5082875;28;20335;-69
2021/04/14 07:54:39;;;;;;;4.90;2.13;;;5.00;99.90;;;;;;5096501;28;20228;-65
2021/04/14 07:57:06;;;;;;;4.97;1.97;;;4.90;99.90;;;;;;5095543;28;20645;-66
2021/04/14 07:59:35;;;;;;;6.27;2.27;;;4.80;99.90;;;;;;5096244;28;20205;-68
2021/04/14 08:02:05;;;;;;;5.73;2.70;;;4.70;99.90;;;;;;5095979;28;20238;-68
2021/04/14 08:04:35;;;;;;;4.13;2.40;;;4.70;99.90;;;;;;5092159;28;20285;-68
2021/04/14 08:07:11;;;;;;;4.73;3.13;;;4.60;99.90;;;;;;5103534;28;20208;-69
2021/04/14 08:09:48;;;;;;;5.77;2.90;;;4.60;99.90;;;;;;5104816;28;20741;-69
2021/04/14 08:12:25;;;;;;;7.17;2.17;;;4.60;99.90;;;;;;5095402;28;20292;-67
2021/04/14 08:14:52;;;;;;;5.13;2.27;;;4.60;99.90;;;;;;5095340;28;20263;-66
2021/04/14 08:17:24;;;;;;;5.23;2.20;;;4.60;99.90;;;;;;5095292;28;20201;-67
2021/04/14 08:19:58;;;;;;;4.03;1.97;;;4.50;99.90;;;;;;5089807;28;20639;-68
2021/04/14 08:22:28;;;;;;;5.93;2.27;;;4.60;99.90;;;;;;5095609;28;20203;-68
2021/04/14 08:24:59;;;;;;;4.23;2.03;;;4.60;99.90;;;;;;5095693;28;20273;-68
2021/04/14 08:27:37;;;;;;;3.00;1.93;;;4.60;99.90;;;;;;5095027;28;20205;-67
2021/04/14 08:30:10;;;;;;;5.20;2.00;;;4.70;99.90;;;;;;5098624;28;20216;-68
2021/04/14 08:32:40;;;;;;;5.77;2.30;;;4.70;99.90;;;;;;5095890;28;20251;-68
2021/04/14 08:35:11;;;;;;;2.83;2.00;;;4.60;99.90;;;;;;5099321;28;20764;-68
2021/04/14 08:37:40;;;;;;;3.70;1.80;;;4.60;99.90;;;;;;5098358;28;20232;-68
2021/04/14 08:40:17;;;;;;;3.83;1.80;;;4.50;99.90;;;;;;5100348;28;20207;-68
2021/04/14 08:42:44;;;;;;;3.30;1.80;;;4.50;99.90;;;;;;5104732;28;20253;-67
2021/04/14 08:45:20;;;;;;;2.93;2.10;;;4.50;99.90;;;;;;5103913;28;20192;-67
2021/04/14 08:47:52;;;;;;;6.90;2.47;;;4.50;99.90;;;;;;5101701;28;20207;-68
2021/04/14 08:50:25;;;;;;;4.30;2.27;;;4.60;99.90;;;;;;5103029;28;20225;-68
2021/04/14 08:52:56;;;;;;;4.90;2.13;;;4.60;99.90;;;;;;5098820;28;20200;-66
2021/04/14 08:55:25;;;;;;;2.60;2.10;;;4.60;99.90;;;;;;5105808;28;20279;-66
2021/04/14 08:57:52;;;;;;;2.80;2.13;;;4.70;99.90;;;;;;5103954;28;20212;-65
2021/04/14 09:00:20;;;;;;;3.93;2.60;;;4.70;99.90;;;;;;5103747;28;20688;-67
2021/04/14 09:02:48;;;;;;;7.47;2.90;;;4.70;99.90;;;;;;5102480;28;20587;-67
2021/04/14 09:05:19;;;;;;;3.83;2.43;;;4.60;99.90;;;;;;5096708;28;20536;-68
2021/04/14 09:07:46;;;;;;;8.53;3.17;;;4.70;99.90;;;;;;5102211;28;20246;-66
2021/04/14 09:10:39;;;;;;;5.20;2.27;;;4.60;99.90;;;;;;5106283;28;20368;-67
2021/04/14 09:13:07;;;;;;;3.73;2.47;;;4.60;99.90;;;;;;5104672;28;20563;-67
2021/04/14 09:15:46;;;;;;;4.27;2.20;;;4.70;99.90;;;;;;5103474;28;20230;-68
2021/04/14 09:18:12;;;;;;;7.53;2.33;;;4.70;99.90;;;;;;5098031;28;20219;-68
2021/04/14 09:20:41;;;;;;;4.30;2.60;;;4.80;99.90;;;;;;5100681;28;20686;-68
2021/04/14 09:23:10;;;;;;;5.37;3.10;;;4.80;99.90;;;;;;5097312;28;20225;-68
2021/04/14 09:25:44;;;;;;;3.37;2.13;;;4.80;99.90;;;;;;5096099;28;20232;-68
2021/04/14 09:28:25;;;;;;;4.37;2.40;;;4.80;99.90;;;;;;5100732;28;20200;-68
2021/04/14 09:30:54;;;;;;;4.57;2.07;;;4.80;99.90;;;;;;5098966;28;20556;-68
2021/04/14 09:33:23;;;;;;;3.73;2.20;;;4.90;99.90;;;;;;5106161;28;20291;-68
2021/04/14 09:36:00;;;;;;;4.30;2.23;;;4.80;99.90;;;;;;5097889;28;20684;-67
2021/04/14 09:38:34;;;;;;;3.60;2.13;;;4.80;99.90;;;;;;5094422;28;20220;-67
2021/04/14 09:41:33;;;;;;;3.90;2.73;;;4.80;99.90;;;;;;5098529;28;20194;-69
2021/04/14 09:44:17;;;;;;;4.43;2.50;;;4.80;99.90;;;;;;5103043;28;20205;-67
2021/04/14 09:46:55;;;;;;;3.33;2.00;;;4.80;99.90;;;;;;5086599;28;20551;-67
2021/04/14 09:49:35;;;;;;;4.07;2.03;;;4.70;99.90;;;;;;5087577;28;20307;-66
2021/04/14 09:52:02;;;;;;;2.83;2.17;;;4.70;99.90;;;;;;5086766;28;20565;-67
2021/04/14 09:54:32;;;;;;;2.80;2.07;;;4.70;99.90;;;;;;5107741;28;20283;-68
2021/04/14 09:57:03;;;;;;;4.53;2.77;;;4.70;99.90;;;;;;5100834;28;20567;-66
2021/04/14 09:59:33;;;;;;;4.17;2.07;;;4.80;99.90;;;;;;5106340;28;20204;-68
2021/04/14 10:02:03;;;;;;;6.83;2.27;;;4.80;99.90;;;;;;5101847;28;20205;-66
2021/04/14 10:04:30;;;;;;;4.70;1.90;;;4.80;99.90;;;;;;5106241;28;20207;-67
2021/04/14 10:07:03;;;;;;;5.37;2.20;;;4.80;99.90;;;;;;5106118;28;20204;-67
2021/04/14 10:09:34;;;;;;;4.03;2.10;;;4.80;99.90;;;;;;5097462;28;20232;-67
2021/04/14 10:12:10;;;;;;;5.67;2.10;;;4.80;99.90;;;;;;5102425;28;20192;-67
2021/04/14 10:14:42;;;;;;;3.83;2.23;;;4.90;99.90;;;;;;5103764;28;20226;-68
2021/04/14 10:17:10;;;;;;;3.43;1.90;;;4.90;99.90;;;;;;5097448;28;20207;-67
2021/04/14 10:19:37;;;;;;;2.47;2.00;;;4.90;99.90;;;;;;5099265;28;20228;-68
2021/04/14 10:22:09;;;;;;;2.43;1.80;;;4.90;99.90;;;;;;5100022;28;20868;-68
2021/04/14 10:24:37;;;;;;;3.17;2.07;;;4.90;99.90;;;;;;5100328;28;20238;-69
2021/04/14 10:27:04;;;;;;;2.90;1.60;;;4.80;99.90;;;;;;5099232;28;20271;-68
2021/04/14 10:29:39;;;;;;;4.17;2.03;;;4.80;99.90;;;;;;5091521;28;20214;-67
2021/04/14 10:32:06;;;;;;;7.07;1.70;;;4.80;99.90;;;;;;5092065;28;20219;-65
2021/04/14 10:34:36;;;;;;;2.13;1.63;;;4.70;99.90;;;;;;5098283;28;20211;-66
2021/04/14 10:37:13;;;;;;;4.77;1.97;;;4.70;99.90;;;;;;5091927;28;20590;-65
2021/04/14 10:39:40;;;;;;;2.20;1.60;;;4.70;99.90;;;;;;5098547;28;20260;-66
2021/04/14 10:42:16;;;;;;;2.67;1.70;;;4.70;99.90;;;;;;5095065;28;20266;-65
2021/04/14 10:44:44;;;;;;;3.60;1.97;;;4.70;99.90;;;;;;5091031;28;20214;-65
2021/04/14 10:47:18;;;;;;;3.47;1.80;;;4.70;99.90;;;;;;5096616;28;20539;-65
2021/04/14 10:49:45;;;;;;;5.03;1.90;;;4.70;99.90;;;;;;5098010;28;20223;-67
2021/04/14 10:52:19;;;;;;;2.60;1.93;;;4.70;99.90;;;;;;5096691;28;20291;-67
2021/04/14 10:54:48;;;;;;;4.13;2.10;;;4.70;99.90;;;;;;5099418;28;20200;-68
2021/04/14 10:57:22;;;;;;;3.27;1.57;;;4.60;99.90;;;;;;5111360;28;20567;-67
2021/04/14 10:59:50;;;;;;;3.57;2.03;;;4.60;99.90;;;;;;5101632;28;20216;-67
2021/04/14 11:02:22;;;;;;;3.30;1.90;;;4.70;99.90;;;;;;5093681;28;20204;-65
2021/04/14 11:04:49;;;;;;;3.50;1.73;;;4.70;99.90;;;;;;5097422;28;20250;-67
2021/04/14 11:07:21;;;;;;;4.13;2.17;;;4.70;99.90;;;;;;5099952;28;20203;-67
2021/04/14 11:09:48;;;;;;;3.97;2.10;;;4.60;99.90;;;;;;5090637;28;20619;-67
2021/04/14 11:12:17;;;;;;;4.93;2.10;;;4.60;99.90;;;;;;5106137;28;20279;-65
2021/04/14 11:14:46;;;;;;;3.23;2.03;;;4.50;99.90;;;;;;5102666;28;20331;-67
2021/04/14 11:17:19;;;;;;;2.67;2.23;;;4.50;99.90;;;;;;5114681;28;20236;-68
2021/04/14 11:19:54;;;;;;;3.87;2.67;;;4.40;99.90;;;;;;5108927;28;20200;-68
2021/04/14 11:22:21;;;;;;;3.83;2.27;;;4.40;99.90;;;;;;5093440;28;20207;-67
2021/04/14 11:24:50;;;;;;;4.70;2.53;;;4.40;99.90;;;;;;5108227;28;20613;-67
2021/04/14 11:27:20;;;;;;;3.13;2.30;;;4.40;99.90;;;;;;5098367;28;20647;-67
2021/04/14 11:29:48;;;;;;;3.33;1.97;;;4.40;99.90;;;;;;5104466;28;20285;-66
2021/04/14 11:32:18;;;;;;;2.53;2.00;;;4.40;99.90;;;;;;5103385;28;20208;-67
2021/04/14 11:34:56;;;;;;;2.80;2.37;;;4.30;99.90;;;;;;5096479;28;20668;-67
2021/04/14 11:37:42;;;;;;;2.73;2.43;;;4.30;99.90;;;;;;5094266;28;20642;-65
2021/04/14 11:40:31;;;;;;;5.47;2.57;;;4.30;99.90;;;;;;5093707;28;20579;-65
2021/04/14 11:43:01;;;;;;;3.73;2.77;;;4.30;99.90;;;;;;5095816;28;20626;-67
2021/04/14 11:45:30;;;;;;;2.80;2.43;;;4.30;99.90;;;;;;5104453;28;20246;-66
2021/04/14 11:48:11;;;;;;;3.60;2.60;;;4.40;99.90;;;;;;5101598;28;20295;-66
2021/04/14 11:50:39;;;;;;;3.23;2.20;;;4.50;99.90;;;;;;5102380;28;20205;-66
2021/04/14 11:53:21;;;;;;;3.07;2.30;;;4.50;99.90;;;;;;5103148;28;20553;-66
2021/04/14 11:55:48;;;;;;;3.47;2.30;;;4.50;99.90;;;;;;5111742;28;20644;-66
2021/04/14 11:58:34;;;;;;;2.70;2.30;;;4.50;99.90;;;;;;5109784;28;20717;-66
2021/04/14 12:01:01;;;;;;;2.40;2.17;;;4.40;99.90;;;;;;5097776;28;20200;-66
2021/04/14 12:03:33;;;;;;;2.73;2.20;;;4.50;99.90;;;;;;5102981;28;20222;-65
2021/04/14 12:06:00;;;;;;;3.60;1.80;;;4.50;99.90;;;;;;5105475;28;20196;-68
2021/04/14 12:08:29;;;;;;;3.07;2.37;;;4.40;99.90;;;;;;5105374;28;20214;-68
2021/04/14 12:10:56;;;;;;;4.93;2.67;;;4.40;99.90;;;;;;5099925;28;20223;-68
2021/04/14 12:13:23;;;;;;;3.30;2.30;;;4.40;99.90;;;;;;5102586;28;20303;-66
2021/04/14 12:15:50;;;;;;;3.03;2.40;;;4.40;99.90;;;;;;5093173;28;20211;-67
2021/04/14 12:18:18;;;;;;;4.23;2.27;;;4.40;99.90;;;;;;5091878;28;20208;-69
2021/04/14 12:20:45;;;;;;;4.20;2.10;;;4.30;99.90;;;;;;5093154;28;20204;-67
2021/04/14 12:23:12;;;;;;;2.07;1.50;;;4.30;99.90;;;;;;5100052;28;20232;-68
2021/04/14 12:25:39;;;;;;;2.67;2.00;;;4.20;99.90;;;;;;5098313;28;20240;-66
2021/04/14 12:28:06;;;;;;;4.77;2.27;;;4.20;99.90;;;;;;5097908;28;20201;-67
2021/04/14 12:30:32;;;;;;;3.47;2.23;;;4.10;99.90;;;;;;5102314;28;20233;-67
2021/04/14 12:32:59;;;;;;;1.83;1.60;;;4.10;99.90;;;;;;5103385;28;20664;-67
2021/04/14 12:35:27;;;;;;;1.97;1.70;;;4.10;99.90;;;;;;5104994;28;20247;-68
2021/04/14 12:37:55;;;;;;;2.33;2.00;;;4.10;99.90;;;;;;5103593;28;20208;-66
2021/04/14 12:40:23;;;;;;;2.87;2.10;;;4.00;99.90;;;;;;5106497;28;20208;-67
2021/04/14 12:42:49;;;;;;;4.37;1.70;;;4.10;99.90;;;;;;5110146;28;20653;-67
2021/04/14 12:45:29;;;;;;;2.53;1.60;;;4.00;99.90;;;;;;5101999;28;20633;-67
2021/04/14 12:47:57;;;;;;;4.23;1.90;;;4.00;99.90;;;;;;5105626;28;20654;-68
2021/04/14 12:50:23;;;;;;;2.93;1.80;;;4.00;99.90;;;;;;5111186;28;20224;-69
2021/04/14 12:52:54;;;;;;;2.00;1.53;;;4.00;99.90;;;;;;5113155;28;20210;-69
2021/04/14 12:55:25;;;;;;;2.40;1.90;;;3.90;99.90;;;;;;5096951;28;20219;-67
2021/04/14 12:57:57;;;;;;;2.43;1.80;;;3.90;99.90;;;;;;5112216;28;20577;-68
2021/04/14 13:00:26;;;;;;;3.17;1.50;;;3.90;99.90;;;;;;5091528;28;20305;-71
2021/04/14 13:02:56;;;;;;;4.00;1.73;;;3.90;99.90;;;;;;5104937;28;20598;-67
2021/04/14 13:05:28;;;;;;;3.17;2.17;;;3.90;99.90;;;;;;5100520;28;20203;-68
2021/04/14 13:08:00;;;;;;;3.30;2.07;;;3.90;99.90;;;;;;5106736;28;20212;-69